Latest Weather Observations for Marble Bar

IDW60801

Issued at 5:23 pm WST Tuesday 23 October 2018 (issued every 10 minutes, with the page automatically refreshed every 10 minutes)

About weather observations | Map of weather stations | Latest weather observations for WA | Other Formats
Station Details ID: 004106 Name: MARBLE BAR Lat: -21.18 Lon: 119.75 Height: 182.3 m
Data from the previous 72 hours. | See also: Recent months at Marble Bar
Date/Time
WST
Temp
°C
App
Temp
°C
Dew
Point
°C
Rel
Hum
%
Delta-T
°C
Wind Press
QNH
hPa
Press
MSL
hPa
Rain since
9am
mm
Dir  Spd
km/h
Gust
km/h
Spd
kts
Gust
kts
23/05:00pm 39.9 33.2 -4.4 6 21.3 WNW 22 35 12 19 1007.7 1006.4 -
23/04:30pm 40.5 33.2 -6.4 5 21.9 W 24 41 13 22 1007.4 1006.1 -
23/04:00pm 41.1 34.6 -6.0 5 22.3 W 20 33 11 18 1007.4 1006.1 -
23/03:30pm 41.0 34.1 -6.0 5 22.2 W 22 39 12 21 1007.5 1006.2 -
23/03:00pm 41.4 34.5 -5.8 5 22.4 WNW 22 33 12 18 1007.8 1006.5 -
23/02:30pm 41.0 34.1 -6.0 5 22.2 WNW 22 35 12 19 1008.1 1006.8 -
23/02:00pm 41.4 34.9 -5.8 5 22.4 W 20 39 11 21 1008.4 1007.1 -
23/01:30pm 41.2 35.3 -5.9 5 22.3 W 17 33 9 18 1008.6 1007.3 -
23/01:00pm 40.6 34.3 -6.3 5 22.0 WNW 19 39 10 21 1009.1 1007.8 -
23/12:30pm 40.2 35.7 -6.6 5 21.8 NW 9 22 5 12 1009.4 1008.1 -
23/09:00am - - - - - ESE 17 - 9 - - - -
23/08:30am 34.3 28.1 -4.6 8 17.9 SE 19 28 10 15 1011.8 1010.6 0.0
23/08:00am 32.7 26.4 -5.8 8 17.1 ESE 19 26 10 14 1011.8 1010.6 0.0
23/07:30am 30.6 25.8 -5.8 9 15.9 SE 11 19 6 10 1011.8 1010.6 0.0
23/07:00am 29.9 25.1 -6.4 9 15.6 S 11 17 6 9 1011.7 1010.5 0.0
23/06:30am 27.4 22.9 -6.9 10 14.3 SSW 9 11 5 6 1011.3 1010.1 0.0
23/06:00am 25.9 21.0 -6.8 11 13.5 SSW 11 15 6 8 1011.1 1009.9 0.0
23/05:30am 25.2 20.3 -7.3 11 13.2 SSW 11 17 6 9 1010.7 1009.5 0.0
23/05:00am 25.6 20.3 -7.0 11 13.4 SSW 13 17 7 9 1010.4 1009.1 0.0
23/04:30am 25.2 20.9 -5.1 13 12.8 SW 9 15 5 8 1010.1 1008.8 0.0
23/04:00am 26.4 22.6 -5.3 12 13.5 S 6 9 3 5 1009.8 1008.5 0.0
23/03:30am 26.1 21.0 -1.7 16 12.6 SSW 15 17 8 9 1009.5 1008.2 0.0
23/03:00am 25.2 22.2 0.7 20 11.6 S 6 7 3 4 1009.5 1008.2 0.0
23/02:30am 25.4 23.3 1.5 21 11.4 SSE 2 6 1 3 1009.6 1008.3 0.0
23/02:00am 26.6 23.6 1.8 20 12.1 SW 7 9 4 5 1009.6 1008.3 0.0
23/01:30am 27.5 23.7 1.8 19 12.6 SW 11 15 6 8 1009.8 1008.5 0.0
23/01:00am 28.2 24.0 1.7 18 13.0 SW 13 15 7 8 1009.9 1008.6 0.0
23/12:30am 28.6 24.8 2.0 18 13.1 SW 11 17 6 9 1010.2 1008.9 0.0
23/12:00am 29.3 25.5 1.7 17 13.6 WSW 11 15 6 8 1010.4 1009.1 0.0
 
Date/Time
WST
Temp
°C
App
Temp
°C
Dew
Point
°C
Rel
Hum
%
Delta-T
°C
Wind Press
QNH
hPa
Press
MSL
hPa
Rain since
9am
mm
Dir  Spd
km/h
Gust
km/h
Spd
kts
Gust
kts
22/11:30pm 29.3 25.7 0.9 16 13.8 SW 9 17 5 9 1010.8 1009.6 0.0
22/11:00pm 31.3 26.9 0.6 14 15.1 WSW 13 20 7 11 1011.0 1009.8 0.0
22/10:30pm 30.8 26.8 0.2 14 14.9 SW 11 17 6 9 1011.1 1009.9 0.0
22/10:00pm 32.7 27.4 -0.4 12 16.1 W 17 22 9 12 1010.9 1009.7 0.0
22/09:30pm 33.4 28.6 0.1 12 16.4 W 15 20 8 11 1011.0 1009.8 0.0
22/09:00pm 33.7 28.4 -0.8 11 16.8 WNW 17 24 9 13 1010.7 1009.5 0.0
22/08:30pm 33.7 29.1 -0.8 11 16.8 WNW 13 20 7 11 1010.7 1009.5 0.0
22/08:00pm 29.7 27.2 -3.9 11 15.1 CALM 0 0 0 0 1010.3 1009.0 0.0
22/07:30pm 30.8 28.3 -4.3 10 15.8 CALM 0 0 0 0 1010.1 1008.8 0.0
22/07:00pm 33.8 30.8 -5.0 8 17.7 SW 2 4 1 2 1009.9 1008.6 0.0
22/06:30pm 35.7 31.7 -5.4 7 18.8 W 7 11 4 6 1009.6 1008.3 0.0
22/06:00pm 37.0 32.5 -6.5 6 19.8 W 9 13 5 7 1009.3 1008.0 0.0
22/05:30pm 38.7 33.2 -5.3 6 20.6 SW 15 24 8 13 1009.1 1007.8 0.0
22/05:00pm 39.2 34.1 -4.9 6 20.9 WSW 13 20 7 11 1008.9 1007.6 0.0
22/04:30pm 39.8 34.0 -4.5 6 21.2 WSW 17 26 9 14 1008.8 1007.5 0.0
22/04:00pm 40.4 33.3 -4.1 6 21.6 WNW 24 41 13 22 1008.6 1007.3 0.0
22/03:30pm 40.5 36.2 -1.9 7 21.2 W 11 28 6 15 1008.6 1007.3 0.0
22/03:00pm 40.5 34.1 -1.9 7 21.2 W 22 35 12 19 1008.9 1007.6 0.0
22/02:54pm 40.5 35.0 -1.9 7 21.2 WSW 17 35 9 19 1009.0 1007.7 0.0
22/02:30pm 40.0 35.2 -2.3 7 21.0 WSW 13 24 7 13 1009.3 1008.0 0.0
22/02:00pm 39.9 34.4 -2.4 7 20.9 SSW 17 30 9 16 1009.8 1008.5 0.0
22/01:30pm 40.0 34.5 -2.3 7 21.0 WSW 17 28 9 15 1010.1 1008.8 0.0
22/01:00pm 40.7 34.9 -1.8 7 21.3 WSW 19 30 10 16 1010.6 1009.4 0.0
22/12:30pm 39.4 34.6 -2.7 7 20.7 SSW 13 28 7 15 1011.1 1009.9 0.0
22/12:00pm 39.3 33.7 -2.8 7 20.6 WSW 17 30 9 16 1011.6 1010.4 0.0
22/11:30am 38.5 32.3 -3.4 7 20.2 SW 20 32 11 17 1012.3 1011.0 0.0
22/11:00am 38.3 33.4 -3.5 7 20.1 SSW 13 28 7 15 1012.7 1011.4 0.0
22/10:30am 37.8 32.8 -3.9 7 19.9 S 13 20 7 11 1013.2 1011.9 0.0
22/10:00am 37.2 31.8 -4.3 7 19.6 SSE 15 24 8 13 1013.5 1012.2 0.0
22/09:30am 36.3 30.5 -5.0 7 19.1 SSE 17 24 9 13 1013.8 1012.5 0.0
22/09:00am 34.9 28.6 -4.2 8 18.2 SE 20 33 11 18 1013.9 1012.6 0.0
22/08:30am 33.9 27.1 -4.9 8 17.7 SSE 22 30 12 16 1013.9 1012.6 0.0
22/08:00am 32.2 26.4 -4.6 9 16.6 SSE 17 26 9 14 1013.9 1012.6 0.0
22/07:30am 31.1 25.7 -4.1 10 15.9 SSE 15 22 8 12 1013.8 1012.5 0.0
22/07:00am 30.1 24.7 -4.8 10 15.5 SSE 15 24 8 13 1013.5 1012.2 0.0
22/06:30am 28.9 22.7 -4.5 11 14.7 S 19 26 10 14 1013.3 1012.0 0.0
22/06:00am 27.1 21.9 -2.7 14 13.4 SSW 15 20 8 11 1013.0 1011.7 0.0
22/05:30am 25.8 20.8 -1.1 17 12.3 SSW 15 19 8 10 1012.7 1011.4 0.0
22/05:00am 24.7 20.6 2.2 23 10.9 SW 13 17 7 9 1012.2 1010.9 0.0
22/04:30am 25.4 21.7 2.2 22 11.2 SSW 11 13 6 7 1012.0 1010.7 0.0
22/04:00am 26.1 22.1 2.7 22 11.5 SSW 13 15 7 8 1011.7 1010.5 0.0
22/03:30am 26.2 22.6 2.8 22 11.5 S 11 15 6 8 1011.6 1010.4 0.0
22/03:00am 25.4 22.8 3.4 24 10.9 ESE 6 7 3 4 1011.5 1010.3 0.0
22/02:30am 26.7 23.3 3.9 23 11.5 SSW 11 17 6 9 1011.2 1010.0 0.0
22/02:00am 25.8 23.2 3.1 23 11.2 SSW 6 7 3 4 1011.0 1009.8 0.0
22/01:30am 27.2 24.4 3.0 21 12.0 SW 7 9 4 5 1011.0 1009.8 0.0
22/01:00am 28.0 24.7 2.2 19 12.7 SW 9 15 5 8 1011.1 1009.9 0.0
22/12:30am 29.6 25.5 2.0 17 13.7 W 13 15 7 8 1011.2 1010.0 0.0
22/12:00am 30.9 27.0 1.3 15 14.7 WSW 11 15 6 8 1011.4 1010.2 0.0
 
Date/Time
WST
Temp
°C
App
Temp
°C
Dew
Point
°C
Rel
Hum
%
Delta-T
°C
Wind Press
QNH
hPa
Press
MSL
hPa
Rain since
9am
mm
Dir  Spd
km/h
Gust
km/h
Spd
kts
Gust
kts
21/11:30pm 31.7 26.1 1.0 14 15.2 W 20 28 11 15 1011.4 1010.2 0.0
21/11:00pm 32.0 26.8 0.2 13 15.6 WNW 17 28 9 15 1011.6 1010.4 0.0
21/10:30pm 32.2 26.7 0.3 13 15.7 WNW 19 30 10 16 1012.0 1010.7 0.0
21/10:00pm 32.3 27.1 2.4 15 15.2 WNW 19 30 10 16 1012.1 1010.8 0.0
21/09:30pm 33.0 28.1 2.0 14 15.7 WNW 17 28 9 15 1011.8 1010.6 0.0
21/09:00pm 33.7 28.7 1.5 13 16.3 WNW 17 30 9 16 1011.6 1010.4 0.0
21/08:30pm 34.5 29.1 1.0 12 16.9 WNW 19 26 10 14 1011.4 1010.2 0.0
21/08:00pm 35.4 29.5 -0.8 10 17.8 WNW 20 33 11 18 1011.3 1010.1 0.0
21/07:30pm 34.7 30.6 -2.8 9 17.8 WNW 9 11 5 6 1010.9 1009.7 0.0
21/07:00pm 35.5 31.5 -2.2 9 18.2 WNW 9 13 5 7 1010.5 1009.2 0.0
21/06:30pm 36.6 31.7 -3.0 8 19.0 WNW 13 17 7 9 1010.0 1008.7 0.0
21/06:00pm 37.6 32.1 -2.2 8 19.5 W 17 26 9 14 1009.6 1008.3 0.0
21/05:30pm 38.7 33.1 -3.2 7 20.3 W 17 28 9 15 1009.4 1008.1 0.0
21/05:00pm 39.5 33.6 -2.6 7 20.7 W 19 32 10 17 1009.2 1007.9 0.0
21/04:30pm 40.2 33.7 -2.1 7 21.0 W 22 33 12 18 1009.2 1007.9 0.0
21/04:00pm 40.4 34.3 -2.0 7 21.2 W 20 35 11 19 1009.1 1007.8 0.0
21/03:30pm 40.4 33.6 -2.0 7 21.2 WNW 24 37 13 20 1009.1 1007.8 0.0
21/03:00pm 40.9 34.5 -1.6 7 21.4 WNW 22 37 12 20 1009.4 1008.1 0.0
21/02:30pm 41.4 35.6 -1.3 7 21.7 WNW 19 32 10 17 1009.6 1008.3 0.0
21/02:00pm 41.0 35.6 -1.6 7 21.5 W 17 37 9 20 1009.9 1008.6 0.0
21/01:30pm 40.9 34.9 -1.6 7 21.4 W 20 32 11 17 1010.5 1009.2 0.0
21/01:00pm 40.6 35.5 -1.9 7 21.3 W 15 24 8 13 1011.0 1009.8 0.0
21/12:30pm 40.0 34.1 -2.3 7 21.0 W 19 28 10 15 1011.4 1010.2 0.0
21/12:00pm 39.8 33.9 -2.4 7 20.9 WNW 19 32 10 17 1012.1 1010.8 0.0
21/11:30am 39.5 35.1 -2.6 7 20.7 WNW 11 19 6 10 1012.6 1011.3 0.0
21/11:00am 39.0 34.8 -1.2 8 20.1 W 11 24 6 13 1013.1 1011.8 0.0
21/10:30am 37.0 32.8 -1.1 9 18.9 SW 11 17 6 9 1013.6 1012.3 0.0
21/10:00am 36.9 33.3 0.3 10 18.5 SSW 9 15 5 8 1014.0 1012.7 0.0
21/09:30am 35.4 31.6 1.7 12 17.3 SW 11 20 6 11 1014.4 1013.1 0.0
21/09:00am 34.1 30.3 3.8 15 15.9 SW 13 19 7 10 1014.5 1013.2 0.0
21/08:30am 32.4 29.2 5.1 18 14.5 SSW 11 17 6 9 1014.6 1013.3 0.0
21/08:00am 30.1 27.5 6.1 22 12.8 WSW 9 11 5 6 1014.7 1013.4 0.0
21/07:30am 28.2 25.6 6.3 25 11.6 SW 9 13 5 7 1014.6 1013.3 0.0
21/07:00am 26.3 23.9 6.9 29 10.3 SW 9 13 5 7 1014.5 1013.2 0.0
21/06:30am 24.1 23.3 8.1 36 8.6 S 2 4 1 2 1014.3 1013.0 0.0
21/06:00am 19.9 19.2 7.0 43 6.6 CALM 0 0 0 0 1014.0 1012.7 0.0
21/05:30am 19.0 18.2 6.5 44 6.3 CALM 0 0 0 0 1013.7 1012.4 0.0
21/05:00am 19.7 19.0 7.1 44 6.4 CALM 0 0 0 0 1013.5 1012.2 0.0
21/04:30am 19.9 19.2 7.0 43 6.6 CALM 0 0 0 0 1013.3 1012.0 0.0
21/04:00am 20.1 18.5 6.5 41 6.9 SSW 4 6 2 3 1013.1 1011.8 0.0
21/03:30am 20.8 19.6 6.4 39 7.3 SSW 2 2 1 1 1012.9 1011.6 0.0
21/03:00am 21.4 19.8 6.5 38 7.6 S 4 4 2 2 1012.9 1011.6 0.0
21/02:30am 22.1 21.3 6.7 37 7.9 CALM 0 0 0 0 1013.0 1011.7 0.0
21/02:00am 23.7 21.8 6.9 34 8.8 SW 6 6 3 3 1012.9 1011.6 0.0
21/01:30am 24.8 24.1 7.0 32 9.4 CALM 0 0 0 0 1013.2 1011.9 0.0
21/01:00am 25.6 24.6 7.2 31 9.8 SE 2 4 1 2 1013.3 1012.0 0.0
21/12:30am 25.7 25.1 7.3 31 9.8 CALM 0 6 0 3 1013.4 1012.1 0.0
21/12:00am 26.2 24.3 6.8 29 10.3 SSW 6 7 3 4 1013.7 1012.4 0.0
 
Date/Time
WST
Temp
°C
App
Temp
°C
Dew
Point
°C
Rel
Hum
%
Delta-T
°C
Wind Press
QNH
hPa
Press
MSL
hPa
Rain since
9am
mm
Dir  Spd
km/h
Gust
km/h
Spd
kts
Gust
kts
20/11:30pm 26.9 24.3 6.3 27 10.9 WSW 9 11 5 6 1013.9 1012.6 0.0
20/11:00pm 27.8 24.9 6.6 26 11.3 W 11 17 6 9 1014.3 1013.0 0.0
20/10:30pm 28.2 25.6 6.3 25 11.6 WSW 9 15 5 8 1014.7 1013.4 0.0
20/10:00pm 28.4 26.3 6.5 25 11.7 W 7 11 4 6 1014.8 1013.5 0.0
20/09:30pm 29.2 26.7 6.6 24 12.1 W 9 17 5 9 1014.8 1013.5 0.0
20/09:00pm 30.0 26.5 7.2 24 12.4 WNW 15 24 8 13 1014.8 1013.5 0.0
20/08:30pm 30.8 28.0 8.5 25 12.4 NW 13 20 7 11 1014.7 1013.4 0.0
20/08:00pm 31.6 28.3 8.0 23 13.1 NW 15 20 8 11 1014.4 1013.1 0.0
20/07:30pm 32.8 28.4 4.6 17 14.9 NNW 17 24 9 13 1013.9 1012.6 0.0
20/07:00pm 33.8 28.8 3.6 15 15.8 NW 19 32 10 17 1013.3 1012.0 0.0
20/06:30pm 34.6 30.3 3.2 14 16.4 NNW 15 22 8 12 1012.5 1011.2 0.0
20/06:00pm 35.7 31.7 -2.0 9 18.3 NW 9 13 5 7 1012.2 1010.9 0.0
20/05:30pm 37.0 32.6 -2.7 8 19.2 NNW 11 19 6 10 1011.8 1010.6 0.0

Other Formats:

Comma delimited format used in spreadsheet applications
http://www.bom.gov.au/fwo/IDW60801/IDW60801.95317.axf

JavaScript Object Notation format (JSON) in row-major order
http://www.bom.gov.au/fwo/IDW60801/IDW60801.95317.json